createdAt,value
2018-12-17T00:01:11.140Z,101378.15
2018-12-17T00:03:41.362Z,101378.06
2018-12-17T00:06:10.856Z,101382.93
2018-12-17T00:08:39.404Z,101382.52
2018-12-17T00:11:08.213Z,101381.81
2018-12-17T00:13:36.697Z,101383.34
2018-12-17T00:16:05.785Z,101383.55
2018-12-17T00:18:35.474Z,101381.12
2018-12-17T00:21:03.827Z,101387.30
2018-12-17T00:23:33.120Z,101382.05
2018-12-17T00:26:01.598Z,101382.93
2018-12-17T00:28:29.990Z,101382.09
2018-12-17T00:30:58.520Z,101375.18
2018-12-17T00:33:26.844Z,101374.44
2018-12-17T00:35:55.237Z,101376.91
2018-12-17T00:38:24.313Z,101370.82
2018-12-17T00:40:53.383Z,101379.34
2018-12-17T00:43:22.264Z,101380.64
2018-12-17T00:45:51.788Z,101376.11
2018-12-17T00:48:21.757Z,101375.99
2018-12-17T00:50:52.315Z,101373.59
2018-12-17T00:53:20.764Z,101371.75
2018-12-17T00:55:49.245Z,101370.03
2018-12-17T00:58:17.756Z,101369.56
2018-12-17T01:00:46.230Z,101377.20
2018-12-17T01:03:16.822Z,101368.77
2018-12-17T01:05:45.366Z,101361.73
2018-12-17T01:08:13.881Z,101369.09
2018-12-17T01:10:42.306Z,101361.83
2018-12-17T01:13:10.855Z,101366.17
2018-12-17T01:15:39.366Z,101365.54
2018-12-17T01:18:07.901Z,101364.89
2018-12-17T01:20:36.973Z,101360.25
2018-12-17T01:23:05.370Z,101363.31
2018-12-17T01:25:33.922Z,101359.09
2018-12-17T01:28:02.408Z,101363.20
2018-12-17T01:30:31.042Z,101364.38
2018-12-17T01:33:01.054Z,101360.66
2018-12-17T01:35:29.924Z,101364.66
2018-12-17T01:37:59.188Z,101361.55
2018-12-17T01:40:27.681Z,101364.89
2018-12-17T01:42:56.452Z,101362.20
2018-12-17T01:45:24.992Z,101360.58
2018-12-17T01:47:53.480Z,101363.86
2018-12-17T01:50:22.304Z,101372.03
2018-12-17T01:52:51.587Z,101375.33
2018-12-17T01:55:20.449Z,101370.97
2018-12-17T01:57:48.973Z,101373.16
2018-12-17T02:00:17.646Z,101370.09
2018-12-17T02:02:46.247Z,101372.59
2018-12-17T02:05:15.473Z,101369.39
2018-12-17T02:07:43.912Z,101371.90
2018-12-17T02:10:12.616Z,101364.38
2018-12-17T02:12:42.486Z,101365.45
2018-12-17T02:15:12.004Z,101361.67
2018-12-17T02:17:42.177Z,101369.98
2018-12-17T02:20:11.606Z,101367.86
2018-12-17T02:22:40.774Z,101362.97
2018-12-17T02:25:09.430Z,101368.00
2018-12-17T02:27:37.953Z,101365.40
2018-12-17T02:30:07.299Z,101369.63
2018-12-17T02:32:36.569Z,101354.39
2018-12-17T02:35:05.871Z,101357.83
2018-12-17T02:37:34.555Z,101358.79
2018-12-17T02:40:06.047Z,101357.70
2018-12-17T02:42:34.680Z,101354.64
2018-12-17T02:45:03.541Z,101353.70
2018-12-17T02:47:33.293Z,101355.14
2018-12-17T02:50:03.542Z,101169.12
2018-12-17T02:52:32.445Z,101348.50
2018-12-17T02:55:02.195Z,101345.58
2018-12-17T02:57:32.419Z,101348.53
2018-12-17T03:00:01.881Z,101348.39
2018-12-17T03:02:30.397Z,101349.21
2018-12-17T03:04:59.014Z,101347.91
2018-12-17T03:07:28.177Z,101344.76
2018-12-17T03:09:56.765Z,101345.52
2018-12-17T03:12:26.436Z,101342.50
2018-12-17T03:14:55.426Z,101342.91
2018-12-17T03:17:24.226Z,101343.19
2018-12-17T03:19:52.874Z,101140.84
2018-12-17T03:22:21.498Z,101336.98
2018-12-17T03:24:50.157Z,101337.80
2018-12-17T03:27:18.746Z,101341.25
2018-12-17T03:29:47.586Z,101340.20
2018-12-17T03:32:20.599Z,101345.75
2018-12-17T03:34:49.043Z,101340.56
2018-12-17T03:37:17.547Z,101346.36
2018-12-17T03:39:46.741Z,101353.05
2018-12-17T03:42:15.107Z,101354.02
2018-12-17T03:44:44.649Z,101348.34
2018-12-17T03:47:13.171Z,101347.11
2018-12-17T03:49:43.035Z,101351.13
2018-12-17T03:52:11.436Z,101347.23
2018-12-17T03:54:40.047Z,101349.48
2018-12-17T03:57:09.918Z,101348.38
2018-12-17T03:59:38.310Z,101348.36
2018-12-17T04:02:06.930Z,101344.12
2018-12-17T04:04:35.521Z,101337.53
2018-12-17T04:07:04.935Z,101336.95
2018-12-17T04:09:33.450Z,101342.34
2018-12-17T04:12:02.979Z,101331.92
2018-12-17T04:14:31.456Z,101331.60
2018-12-17T04:17:00.050Z,101328.84
2018-12-17T04:19:29.429Z,101335.70
2018-12-17T04:21:57.861Z,101335.44
2018-12-17T04:24:26.647Z,101336.94
2018-12-17T04:26:55.197Z,101344.85
2018-12-17T04:29:24.515Z,101338.35
2018-12-17T04:31:53.036Z,101339.88
2018-12-17T04:34:23.094Z,101347.93
2018-12-17T04:36:51.696Z,101349.97
2018-12-17T04:39:20.099Z,101356.25
2018-12-17T04:41:48.528Z,101351.56
2018-12-17T04:44:17.074Z,101350.32
2018-12-17T04:46:46.289Z,101352.03
2018-12-17T04:49:14.839Z,101351.36
2018-12-17T04:51:44.033Z,101355.36
2018-12-17T04:54:13.381Z,101355.46
2018-12-17T04:56:44.544Z,101356.16
2018-12-17T04:59:14.720Z,101366.61
2018-12-17T05:01:43.541Z,101366.40
2018-12-17T05:04:12.168Z,101364.16
2018-12-17T05:06:40.759Z,101362.91
2018-12-17T05:09:10.138Z,101356.09
2018-12-17T05:11:38.477Z,101354.47
2018-12-17T05:14:07.117Z,101364.52
2018-12-17T05:16:35.709Z,101370.04
2018-12-17T05:19:04.276Z,101371.75
2018-12-17T05:21:33.605Z,101367.42
2018-12-17T05:24:02.227Z,101364.38
2018-12-17T05:26:34.325Z,101369.93
2018-12-17T05:29:02.921Z,101364.79
2018-12-17T05:31:31.408Z,101375.40
2018-12-17T05:33:59.813Z,101372.08
2018-12-17T05:36:28.342Z,101369.00
2018-12-17T05:38:56.894Z,101374.32
2018-12-17T05:41:26.124Z,101383.67
2018-12-17T05:43:54.982Z,101386.33
2018-12-17T05:46:23.410Z,101384.72
2018-12-17T05:48:52.033Z,101386.30
2018-12-17T05:51:20.484Z,101400.09
2018-12-17T05:53:48.972Z,101397.84
2018-12-17T05:56:18.561Z,101403.73
2018-12-17T05:58:47.062Z,101401.97
2018-12-17T06:01:16.154Z,101404.04
2018-12-17T06:03:44.718Z,101410.70
2018-12-17T06:06:14.235Z,101413.92
2018-12-17T06:08:42.934Z,101409.39
2018-12-17T06:11:11.531Z,101419.48
2018-12-17T06:13:40.185Z,101406.06
2018-12-17T06:16:09.537Z,101408.08
2018-12-17T06:18:40.002Z,101423.19
2018-12-17T06:21:10.522Z,101426.25
2018-12-17T06:23:39.799Z,101424.42
2018-12-17T06:26:08.405Z,101426.00
2018-12-17T06:28:37.789Z,101432.56
2018-12-17T06:31:06.353Z,101427.14
2018-12-17T06:33:36.538Z,101428.45
2018-12-17T06:36:05.320Z,101433.04
2018-12-17T06:38:33.818Z,101445.91
2018-12-17T06:41:05.770Z,101444.49
2018-12-17T06:43:40.215Z,101447.46
2018-12-17T06:46:09.534Z,101450.17
2018-12-17T06:48:41.141Z,101447.89
2018-12-17T06:51:09.749Z,101448.61
2018-12-17T06:53:41.259Z,101450.06
2018-12-17T06:56:09.660Z,101456.11
2018-12-17T07:01:17.480Z,101461.16
2018-12-17T07:03:45.859Z,101458.66
2018-12-17T07:06:17.894Z,101472.23
2018-12-17T07:08:55.063Z,101478.92
2018-12-17T07:11:24.408Z,101476.63
2018-12-17T07:13:52.774Z,101483.13
2018-12-17T07:16:21.165Z,101484.55
2018-12-17T07:18:49.826Z,101488.83
2018-12-17T07:21:18.228Z,101490.91
2018-12-17T07:23:46.611Z,101508.95
2018-12-17T07:26:15.637Z,101509.51
2018-12-17T07:28:45.165Z,101517.70
2018-12-17T07:31:14.871Z,101521.91
2018-12-17T07:33:44.359Z,101525.71
2018-12-17T07:36:12.722Z,101539.83
2018-12-17T07:38:41.109Z,101532.45
2018-12-17T07:41:09.598Z,101540.27
2018-12-17T07:43:38.682Z,101537.12
2018-12-17T07:46:07.160Z,101547.02
2018-12-17T07:48:36.489Z,101549.20
2018-12-17T07:51:04.838Z,101554.46
2018-12-17T07:53:33.333Z,101557.44
2018-12-17T07:56:01.851Z,101564.27
2018-12-17T07:58:30.228Z,101571.47
2018-12-17T08:00:59.478Z,101572.04
2018-12-17T08:03:28.964Z,101577.63
2018-12-17T08:05:57.838Z,101576.22
2018-12-17T08:08:26.330Z,101576.22
2018-12-17T08:10:54.705Z,101586.55
2018-12-17T08:13:24.158Z,101585.09
2018-12-17T08:15:52.505Z,101591.29
2018-12-17T08:21:05.010Z,101591.79
2018-12-17T08:23:33.499Z,101602.38
2018-12-17T08:26:01.850Z,101604.83
2018-12-17T08:28:30.637Z,101610.05
2018-12-17T08:30:59.150Z,101609.90
2018-12-17T08:33:27.500Z,101615.51
2018-12-17T08:35:56.680Z,101618.43
2018-12-17T08:38:25.074Z,101620.40
2018-12-17T08:40:53.954Z,101631.06
2018-12-17T08:43:22.361Z,101629.74
2018-12-17T08:45:52.065Z,101640.01
2018-12-17T08:48:20.979Z,101640.37
2018-12-17T08:50:49.817Z,101645.70
2018-12-17T08:53:18.309Z,101651.25
2018-12-17T08:55:46.691Z,101654.81
2018-12-17T08:58:15.467Z,101658.27
2018-12-17T09:00:44.646Z,101659.94
2018-12-17T09:03:13.207Z,101663.71
2018-12-17T09:05:41.706Z,101668.27
2018-12-17T09:08:10.395Z,101670.11
2018-12-17T09:10:39.109Z,101682.58
2018-12-17T09:13:07.587Z,101680.60
2018-12-17T09:15:35.874Z,101695.72
2018-12-17T09:18:04.282Z,101697.23
2018-12-17T09:20:33.417Z,101701.84
2018-12-17T09:23:01.938Z,101705.81
2018-12-17T09:25:31.638Z,101706.50
2018-12-17T09:28:13.085Z,101705.92
2018-12-17T09:30:41.739Z,101709.88
2018-12-17T09:33:10.217Z,101720.95
2018-12-17T09:35:38.645Z,101720.75
2018-12-17T09:38:06.937Z,101726.70
2018-12-17T09:40:35.204Z,101732.88
2018-12-17T09:43:03.728Z,101738.87
2018-12-17T09:45:32.136Z,101742.28
2018-12-17T09:48:00.410Z,101745.98
2018-12-17T09:50:28.835Z,101752.44
2018-12-17T09:52:57.182Z,101757.72
2018-12-17T09:55:25.569Z,101765.80
2018-12-17T09:57:53.922Z,101771.25
2018-12-17T10:00:25.394Z,101767.90
2018-12-17T10:02:52.681Z,101777.77
2018-12-17T10:05:21.055Z,101775.88
2018-12-17T10:07:49.666Z,101777.63
2018-12-17T10:10:17.972Z,101783.30
2018-12-17T10:12:46.235Z,101791.85
2018-12-17T10:15:14.631Z,101792.22
2018-12-17T10:17:42.921Z,101789.87
2018-12-17T10:20:11.296Z,101794.24
2018-12-17T10:22:39.700Z,101797.39
2018-12-17T10:25:08.289Z,101803.48
2018-12-17T10:27:36.579Z,101800.08
2018-12-17T10:30:06.390Z,101799.80
2018-12-17T10:32:34.788Z,101802.05
2018-12-17T10:35:03.483Z,101805.80
2018-12-17T10:37:32.451Z,101799.09
2018-12-17T10:40:00.928Z,101803.25
2018-12-17T10:42:29.188Z,101813.07
2018-12-17T10:44:57.542Z,101823.80
2018-12-17T10:47:26.268Z,101817.83
2018-12-17T10:49:54.557Z,101821.84
2018-12-17T10:52:22.921Z,101823.30
2018-12-17T10:54:51.865Z,101823.19
2018-12-17T10:57:20.560Z,101819.97
2018-12-17T10:59:49.062Z,101820.89
2018-12-17T11:02:29.784Z,101822.72
2018-12-17T11:05:17.011Z,101818.66
2018-12-17T11:07:45.411Z,101822.17
2018-12-17T11:10:13.873Z,101829.98
2018-12-17T11:12:42.145Z,101838.09
2018-12-17T11:15:11.455Z,101838.09
2018-12-17T11:17:40.027Z,101839.27
2018-12-17T11:20:10.006Z,101844.56
2018-12-17T11:22:38.456Z,101847.73
2018-12-17T11:25:07.771Z,101847.73
2018-12-17T11:27:38.951Z,101850.75
2018-12-17T11:30:10.338Z,101857.88
2018-12-17T11:32:43.627Z,101851.36
2018-12-17T11:35:12.704Z,101848.28
2018-12-17T11:37:41.046Z,101845.67
2018-12-17T11:40:09.762Z,101850.37
2018-12-17T11:42:38.066Z,101857.17
2018-12-17T11:45:06.629Z,101864.41
2018-12-17T11:47:35.158Z,101869.42
2018-12-17T11:50:03.707Z,101860.95
2018-12-17T11:52:32.009Z,101864.63
2018-12-17T11:55:00.407Z,101872.16
2018-12-17T11:57:48.378Z,101869.52
2018-12-17T12:00:17.110Z,101866.36
2018-12-17T12:02:45.425Z,101882.11
2018-12-17T12:05:13.927Z,101877.37
2018-12-17T12:07:42.429Z,101889.15
2018-12-17T12:10:10.761Z,101888.41
2018-12-17T12:12:39.194Z,101892.39
2018-12-17T12:15:07.914Z,101897.66
2018-12-17T12:17:36.274Z,101897.08
2018-12-17T12:20:05.381Z,101902.72
2018-12-17T12:22:34.131Z,101914.97
2018-12-17T12:25:02.443Z,101905.90
2018-12-17T12:27:31.050Z,101909.68
2018-12-17T12:29:59.857Z,101915.73
2018-12-17T12:32:28.349Z,101920.30
2018-12-17T12:34:57.172Z,101923.62
2018-12-17T12:37:25.658Z,101925.98
2018-12-17T12:39:54.088Z,101935.03
2018-12-17T12:42:22.393Z,101941.09
2018-12-17T12:44:51.459Z,101939.09
2018-12-17T12:47:20.009Z,101931.09
2018-12-17T12:49:50.071Z,101936.99
2018-12-17T12:52:18.529Z,101932.72
2018-12-17T12:54:47.026Z,101943.60
2018-12-17T12:57:15.399Z,101934.71
2018-12-17T12:59:43.806Z,101942.47
2018-12-17T13:02:12.119Z,101946.48
2018-12-17T13:04:40.499Z,101943.73
2018-12-17T13:07:08.982Z,101954.02
2018-12-17T13:09:37.268Z,101945.63
2018-12-17T13:12:05.905Z,101954.95
2018-12-17T13:14:34.302Z,101963.21
2018-12-17T13:17:07.461Z,101960.55
2018-12-17T13:19:35.740Z,101955.20
2018-12-17T13:22:04.195Z,101958.90
2018-12-17T13:24:32.778Z,101956.37
2018-12-17T13:27:01.119Z,101959.65
2018-12-17T13:29:29.415Z,101957.31
2018-12-17T13:31:58.960Z,101964.11
2018-12-17T13:34:27.313Z,101970.42
2018-12-17T13:36:55.739Z,101974.20
2018-12-17T13:39:24.538Z,101975.73
2018-12-17T13:41:53.149Z,101987.97
2018-12-17T13:44:21.414Z,101985.66
2018-12-17T13:46:50.330Z,102000.45
2018-12-17T13:49:18.994Z,102014.61
2018-12-17T13:51:53.052Z,102021.54
2018-12-17T13:54:21.921Z,102023.92
2018-12-17T13:56:51.679Z,102015.95
2018-12-17T13:59:20.303Z,102019.75
2018-12-17T14:01:51.551Z,102020.69
2018-12-17T14:04:19.271Z,102026.55
2018-12-17T14:06:47.902Z,102034.64
2018-12-17T14:09:16.232Z,102032.92
2018-12-17T14:11:47.093Z,102050.70
2018-12-17T14:14:15.893Z,102045.00
2018-12-17T14:16:49.972Z,102053.44
2018-12-17T14:19:23.818Z,102051.78
2018-12-17T14:21:58.114Z,102059.31
2018-12-17T14:24:26.650Z,102062.34
2018-12-17T14:26:55.783Z,102070.35
2018-12-17T14:29:24.171Z,102077.13
2018-12-17T14:31:52.557Z,102083.02
2018-12-17T14:34:21.028Z,102089.77
2018-12-17T14:36:50.913Z,102093.14
2018-12-17T14:39:19.234Z,102101.27
2018-12-17T14:41:47.685Z,102103.97
2018-12-17T14:44:21.684Z,102112.91
2018-12-17T14:46:56.845Z,102104.59
2018-12-17T14:49:25.442Z,102113.97
2018-12-17T14:51:53.713Z,102112.55
2018-12-17T14:54:22.164Z,102125.05
2018-12-17T14:56:52.013Z,102125.27
2018-12-17T14:59:20.308Z,102123.50
2018-12-17T15:02:01.854Z,102132.14
2018-12-17T15:04:42.881Z,102140.43
2018-12-17T15:07:11.369Z,102139.91
2018-12-17T15:09:39.807Z,102149.16
2018-12-17T15:12:08.238Z,102153.34
2018-12-17T15:14:36.655Z,102149.13
2018-12-17T15:17:05.031Z,102152.61
2018-12-17T15:19:33.552Z,102159.98
2018-12-17T15:22:01.926Z,102159.21
2018-12-17T15:24:30.256Z,102162.81
2018-12-17T15:26:58.723Z,102163.55
2018-12-17T15:29:27.076Z,102161.50
2018-12-17T15:31:56.041Z,102169.45
2018-12-17T15:34:24.419Z,102170.91
2018-12-17T15:36:52.724Z,102167.23
2018-12-17T15:39:21.072Z,102174.86
2018-12-17T15:41:49.656Z,102176.09
2018-12-17T15:44:17.905Z,102173.09
2018-12-17T15:46:46.218Z,102172.10
2018-12-17T15:49:14.698Z,102182.92
2018-12-17T15:51:43.045Z,102182.02
2018-12-17T15:54:11.412Z,102183.42
2018-12-17T15:56:39.836Z,102186.98
2018-12-17T15:59:08.864Z,102195.58
2018-12-17T16:01:37.234Z,102194.31
2018-12-17T16:04:05.686Z,102197.76
2018-12-17T16:06:33.977Z,102199.67
2018-12-17T16:09:02.724Z,102196.00
2018-12-17T16:11:31.173Z,102202.98
2018-12-17T16:14:00.188Z,102211.08
2018-12-17T16:16:29.386Z,102213.75
2018-12-17T16:18:57.789Z,102216.33
2018-12-17T16:21:26.310Z,102214.63
2018-12-17T16:23:54.758Z,102217.49
2018-12-17T16:26:23.015Z,102222.18
2018-12-17T16:28:51.896Z,102221.72
2018-12-17T16:31:20.159Z,102218.80
2018-12-17T16:33:48.525Z,102225.98
2018-12-17T16:36:16.966Z,102231.54
2018-12-17T16:38:45.421Z,102236.59
2018-12-17T16:41:13.893Z,102236.20
2018-12-17T16:43:42.623Z,102245.68
2018-12-17T16:46:11.093Z,102245.41
2018-12-17T16:48:39.397Z,102247.89
2018-12-17T16:51:07.848Z,102245.84
2018-12-17T16:53:36.242Z,102256.95
2018-12-17T16:56:04.652Z,102259.11
2018-12-17T16:58:33.094Z,102264.68
2018-12-17T17:01:01.395Z,102261.80
2018-12-17T17:03:29.861Z,102259.28
2018-12-17T17:05:58.587Z,102269.94
2018-12-17T17:08:27.102Z,102268.41
2018-12-17T17:10:56.283Z,102269.61
2018-12-17T17:13:24.846Z,102272.13
2018-12-17T17:15:53.236Z,102270.83
2018-12-17T17:18:21.553Z,102275.44
2018-12-17T17:20:50.373Z,102281.64
2018-12-17T17:23:18.805Z,102284.37
2018-12-17T17:25:47.317Z,102285.53
2018-12-17T17:28:15.987Z,102289.09
2018-12-17T17:30:44.394Z,102285.83
2018-12-17T17:33:12.800Z,102284.45
2018-12-17T17:35:41.563Z,102287.60
2018-12-17T17:38:09.915Z,102294.94
2018-12-17T17:40:38.425Z,102293.20
2018-12-17T17:43:06.915Z,102300.20
2018-12-17T17:45:35.376Z,102298.06
2018-12-17T17:48:04.089Z,102305.93
2018-12-17T17:50:32.464Z,102303.38
2018-12-17T17:53:00.942Z,102316.41
2018-12-17T17:55:29.449Z,102310.03
2018-12-17T17:57:57.802Z,102320.09
2018-12-17T18:00:26.198Z,102319.73
2018-12-17T18:02:54.647Z,102326.72
2018-12-17T18:05:22.997Z,102329.45
2018-12-17T18:07:51.444Z,102325.60
2018-12-17T18:10:19.970Z,102329.94
2018-12-17T18:12:49.001Z,102331.72
2018-12-17T18:15:17.452Z,102332.60
2018-12-17T18:17:45.900Z,102336.88
2018-12-17T18:20:14.941Z,102331.52
2018-12-17T18:22:43.367Z,102334.44
2018-12-17T18:25:11.893Z,102341.69
2018-12-17T18:27:40.420Z,102342.59
2018-12-17T18:30:09.115Z,102343.11
2018-12-17T18:32:37.444Z,102347.05
2018-12-17T18:35:06.210Z,102347.47
2018-12-17T18:37:34.655Z,102351.06
2018-12-17T18:40:03.317Z,102352.49
2018-12-17T18:42:32.232Z,102351.17
2018-12-17T18:45:00.577Z,102354.66
2018-12-17T18:47:29.127Z,102355.15
2018-12-17T18:49:57.774Z,102349.13
2018-12-17T18:52:26.262Z,102349.66
2018-12-17T18:54:54.578Z,102356.64
2018-12-17T18:57:23.034Z,102361.80
2018-12-17T18:59:51.698Z,102371.48
2018-12-17T19:02:20.974Z,102373.25
2018-12-17T19:04:50.069Z,102371.09
2018-12-17T19:07:18.575Z,102373.28
2018-12-17T19:09:47.046Z,102378.13
2018-12-17T19:12:15.376Z,102373.78
2018-12-17T19:14:43.872Z,102383.27
2018-12-17T19:17:12.184Z,102384.51
2018-12-17T19:19:40.610Z,102382.30
2018-12-17T19:22:09.039Z,102384.94
2018-12-17T19:24:37.346Z,102383.61
2018-12-17T19:27:05.758Z,102393.15
2018-12-17T19:29:34.202Z,102401.70
2018-12-17T19:32:02.783Z,102401.71
2018-12-17T19:34:31.227Z,102405.52
2018-12-17T19:37:00.392Z,102405.12
2018-12-17T19:39:28.890Z,102406.80
2018-12-17T19:41:57.275Z,102411.09
2018-12-17T19:44:25.773Z,102416.17
2018-12-17T19:46:55.821Z,102418.77
2018-12-17T19:49:24.318Z,102413.05
2018-12-17T19:51:52.823Z,102411.23
2018-12-17T19:54:21.182Z,102408.59
2018-12-17T19:56:49.824Z,102410.34
2018-12-17T19:59:18.312Z,102422.95
2018-12-17T20:01:46.633Z,102425.52
2018-12-17T20:04:15.142Z,102428.56
2018-12-17T20:06:43.595Z,102427.44
2018-12-17T20:09:11.914Z,102434.25
2018-12-17T20:11:40.441Z,102431.16
2018-12-17T20:14:09.078Z,102438.64
2018-12-17T20:16:37.522Z,102437.34
2018-12-17T20:19:05.985Z,102427.42
2018-12-17T20:21:34.952Z,102440.27
2018-12-17T20:24:03.671Z,102435.06
2018-12-17T20:26:32.132Z,102440.27
2018-12-17T20:29:00.533Z,102436.81
2018-12-17T20:31:29.123Z,102447.22
2018-12-17T20:33:57.563Z,102452.36
2018-12-17T20:36:26.039Z,102445.33
2018-12-17T20:38:54.588Z,102443.59
2018-12-17T20:41:22.890Z,102442.35
2018-12-17T20:43:51.812Z,102445.34
2018-12-17T20:46:20.236Z,102445.14
2018-12-17T20:48:49.983Z,102444.91
2018-12-17T20:51:18.250Z,102455.04
2018-12-17T20:53:46.746Z,102447.93
2018-12-17T20:56:15.178Z,102454.05
2018-12-17T20:58:43.683Z,102450.53
2018-12-17T21:03:51.800Z,102449.05
2018-12-17T21:06:20.534Z,102462.85
2018-12-17T21:08:49.097Z,102464.64
2018-12-17T21:11:17.897Z,102466.44
2018-12-17T21:13:47.193Z,102468.13
2018-12-17T21:16:17.353Z,102463.38
2018-12-17T21:18:47.899Z,102461.69
2018-12-17T21:21:16.842Z,102467.36
2018-12-17T21:23:47.189Z,102460.53
2018-12-17T21:26:15.660Z,102465.25
2018-12-17T21:28:44.136Z,102458.76
2018-12-17T21:31:12.938Z,102458.38
2018-12-17T21:33:41.504Z,102458.45
2018-12-17T21:36:11.300Z,102457.23
2018-12-17T21:38:40.762Z,102460.30
2018-12-17T21:41:12.414Z,102466.38
2018-12-17T21:43:40.978Z,102458.17
2018-12-17T21:46:10.118Z,102457.31
2018-12-17T21:48:39.606Z,102461.66
2018-12-17T21:51:08.908Z,102460.86
2018-12-17T21:53:37.410Z,102463.45
2018-12-17T21:56:06.787Z,102465.94
2018-12-17T21:58:35.397Z,102462.92
2018-12-17T22:01:04.008Z,102462.80
2018-12-17T22:03:33.073Z,102464.02
2018-12-17T22:06:01.550Z,102472.11
2018-12-17T22:08:30.684Z,102468.55
2018-12-17T22:10:59.950Z,102476.55
2018-12-17T22:13:29.299Z,102474.72
2018-12-17T22:15:58.649Z,102476.69
2018-12-17T22:18:27.319Z,102478.78
2018-12-17T22:20:56.844Z,102480.11
2018-12-17T22:23:25.482Z,102477.28
2018-12-17T22:25:54.297Z,102479.57
2018-12-17T22:28:23.453Z,102479.17
2018-12-17T22:30:52.941Z,102484.42
2018-12-17T22:33:22.526Z,102491.77
2018-12-17T22:35:51.501Z,102493.81
2018-12-17T22:38:20.017Z,102498.66
2018-12-17T22:40:48.399Z,102499.56
2018-12-17T22:43:17.826Z,102497.48
2018-12-17T22:45:46.486Z,102504.58
2018-12-17T22:48:14.819Z,102505.41
2018-12-17T22:50:43.869Z,102501.05
2018-12-17T22:53:13.476Z,102501.03
2018-12-17T22:55:41.824Z,102488.87
2018-12-17T22:58:10.654Z,102502.18
2018-12-17T23:00:39.936Z,102492.14
2018-12-17T23:03:08.664Z,102500.83
2018-12-17T23:05:37.589Z,102497.70
2018-12-17T23:08:05.967Z,102494.60
2018-12-17T23:10:51.505Z,102490.91
2018-12-17T23:13:36.974Z,102485.41
2018-12-17T23:16:22.294Z,102489.88
2018-12-17T23:18:48.858Z,102488.30
2018-12-17T23:21:18.083Z,102482.58
2018-12-17T23:23:46.975Z,102476.48
2018-12-17T23:26:15.358Z,102469.86
2018-12-17T23:28:43.652Z,102475.09
2018-12-17T23:31:12.226Z,102485.45
2018-12-17T23:33:40.526Z,102473.77
2018-12-17T23:36:09.656Z,102474.06
2018-12-17T23:38:37.976Z,102466.39
2018-12-17T23:41:06.392Z,102466.30
2018-12-17T23:43:34.869Z,102455.62
2018-12-17T23:46:03.206Z,102462.45
2018-12-17T23:48:31.594Z,102460.25
2018-12-17T23:51:00.176Z,102456.73
2018-12-17T23:53:28.539Z,102449.63
2018-12-17T23:55:56.985Z,102454.96
2018-12-17T23:58:25.403Z,102442.92
